createdAt,value
2017-07-06T00:00:29.175Z,9.35
2017-07-06T00:02:55.238Z,10.20
2017-07-06T00:05:21.306Z,10.77
2017-07-06T00:07:47.357Z,7.87
2017-07-06T00:10:13.426Z,9.38
2017-07-06T00:12:39.481Z,8.02
2017-07-06T00:15:05.543Z,11.10
2017-07-06T00:17:31.593Z,10.07
2017-07-06T00:20:33.444Z,10.48
2017-07-06T00:23:02.677Z,10.07
2017-07-06T00:25:28.738Z,10.60
2017-07-06T00:27:54.790Z,9.02
2017-07-06T00:30:20.904Z,10.07
2017-07-06T00:32:46.926Z,10.00
2017-07-06T00:35:12.981Z,9.98
2017-07-06T00:37:39.783Z,9.45
2017-07-06T00:40:05.829Z,9.65
2017-07-06T00:42:31.886Z,8.75
2017-07-06T00:44:57.946Z,9.43
2017-07-06T00:47:23.996Z,10.20
2017-07-06T00:49:50.038Z,9.93
2017-07-06T00:52:16.857Z,12.63
2017-07-06T00:54:42.910Z,10.60
2017-07-06T00:57:08.969Z,9.10
2017-07-06T00:59:35.050Z,8.10
2017-07-06T01:02:01.110Z,7.87
2017-07-06T01:04:27.157Z,7.62
2017-07-06T01:06:53.219Z,10.40
2017-07-06T01:09:19.271Z,10.15
2017-07-06T01:11:46.063Z,8.52
2017-07-06T01:14:12.131Z,8.10
2017-07-06T01:37:52.181Z,8.43
2017-07-06T01:40:18.255Z,12.02
2017-07-06T01:42:44.346Z,11.27
2017-07-06T01:45:10.406Z,8.43
2017-07-06T01:47:36.481Z,10.35
2017-07-06T01:50:02.546Z,10.98
2017-07-06T01:52:28.606Z,10.73
2017-07-06T01:54:54.657Z,10.25
2017-07-06T01:57:20.751Z,10.48
2017-07-06T01:59:46.826Z,10.80
2017-07-06T02:02:12.883Z,11.02
2017-07-06T02:04:38.940Z,11.95
2017-07-06T02:07:05.760Z,9.25
2017-07-06T02:09:31.881Z,11.40
2017-07-06T02:11:57.899Z,10.77
2017-07-06T02:14:23.964Z,12.23
2017-07-06T02:16:50.026Z,10.70
2017-07-06T02:19:16.087Z,10.70
2017-07-06T02:21:42.162Z,10.55
2017-07-06T02:24:08.242Z,11.75
2017-07-06T02:26:34.286Z,11.30
2017-07-06T02:29:00.378Z,11.55
2017-07-06T02:31:26.431Z,11.50
2017-07-06T02:33:52.484Z,10.90
2017-07-06T02:36:18.556Z,12.77
2017-07-06T02:38:44.609Z,11.80
2017-07-06T02:41:10.666Z,11.68
2017-07-06T02:43:36.735Z,12.43
2017-07-06T02:46:02.787Z,12.57
2017-07-06T02:48:28.847Z,12.80
2017-07-06T02:50:54.896Z,13.32
2017-07-06T02:53:20.950Z,12.85
2017-07-06T02:55:47.003Z,11.73
2017-07-06T02:58:13.975Z,12.55
2017-07-06T03:00:40.069Z,13.23
2017-07-06T03:03:06.135Z,13.88
2017-07-06T03:05:32.197Z,12.55
2017-07-06T03:07:58.257Z,12.85
2017-07-06T03:10:24.324Z,12.88
2017-07-06T03:12:50.382Z,14.52
2017-07-06T03:15:16.442Z,12.75
2017-07-06T03:17:42.528Z,13.57
2017-07-06T03:20:08.582Z,13.77
2017-07-06T03:22:34.638Z,13.07
2017-07-06T03:25:00.688Z,15.07
2017-07-06T03:27:26.750Z,14.35
2017-07-06T03:29:52.813Z,11.27
2017-07-06T03:32:18.863Z,14.35
2017-07-06T03:34:44.939Z,14.77
2017-07-06T03:37:11.008Z,11.65
2017-07-06T03:39:37.074Z,13.45
2017-07-06T03:42:03.118Z,14.93
2017-07-06T03:44:29.187Z,14.68
2017-07-06T03:46:55.246Z,14.30
2017-07-06T03:49:21.298Z,14.27
2017-07-06T03:51:48.094Z,14.55
2017-07-06T03:54:14.156Z,12.63
2017-07-06T03:56:40.204Z,12.55
2017-07-06T03:59:06.254Z,14.55
2017-07-06T04:01:32.286Z,13.68
2017-07-06T04:03:58.329Z,11.80
2017-07-06T04:06:24.377Z,13.65
2017-07-06T04:08:50.406Z,9.68
2017-07-06T04:11:16.471Z,14.73
2017-07-06T04:13:42.514Z,15.23
2017-07-06T04:16:08.556Z,14.52
2017-07-06T04:18:34.598Z,13.98
2017-07-06T04:21:00.635Z,14.68
2017-07-06T04:23:26.667Z,13.68
2017-07-06T04:25:52.709Z,13.57
2017-07-06T04:28:18.747Z,13.23
2017-07-06T04:30:44.788Z,13.10
2017-07-06T04:33:10.863Z,10.43
2017-07-06T04:35:36.907Z,13.95
2017-07-06T04:38:03.690Z,14.95
2017-07-06T04:40:29.734Z,12.27
2017-07-06T04:42:55.771Z,9.65
2017-07-06T04:45:21.806Z,16.17
2017-07-06T04:47:47.851Z,17.77
2017-07-06T04:50:13.899Z,15.65
2017-07-06T04:52:39.938Z,15.05
2017-07-06T04:55:05.984Z,12.23
2017-07-06T04:57:32.023Z,9.73
2017-07-06T04:59:58.059Z,14.77
2017-07-06T05:02:24.107Z,17.20
2017-07-06T05:04:50.154Z,16.75
2017-07-06T05:07:16.198Z,16.65
2017-07-06T05:09:42.231Z,19.42
2017-07-06T05:12:08.271Z,16.60
2017-07-06T05:14:34.346Z,10.93
2017-07-06T05:17:00.397Z,14.32
2017-07-06T05:19:26.443Z,16.60
2017-07-06T05:21:52.483Z,17.48
2017-07-06T05:24:18.526Z,15.70
2017-07-06T05:26:44.562Z,13.52
2017-07-06T05:29:10.607Z,15.65
2017-07-06T05:31:36.657Z,15.73
2017-07-06T05:34:02.719Z,11.25
2017-07-06T05:36:28.783Z,17.83
2017-07-06T05:38:54.830Z,14.48
2017-07-06T05:41:20.923Z,9.38
2017-07-06T05:43:46.986Z,9.52
2017-07-06T05:46:13.090Z,11.18
2017-07-06T05:48:53.979Z,10.75
2017-07-06T05:51:20.093Z,14.70
2017-07-06T05:53:46.194Z,14.73
2017-07-06T05:56:12.234Z,16.10
2017-07-06T05:58:38.288Z,17.25
2017-07-06T06:01:04.337Z,11.52
2017-07-06T06:03:30.403Z,16.62
2017-07-06T06:05:57.202Z,11.27
2017-07-06T06:08:23.246Z,11.82
2017-07-06T06:11:20.359Z,11.10
2017-07-06T06:13:46.562Z,12.73
2017-07-06T06:16:27.584Z,9.07
2017-07-06T06:18:53.657Z,15.77
2017-07-06T06:21:19.716Z,15.68
2017-07-06T06:23:45.787Z,10.90
2017-07-06T06:26:11.850Z,13.85
2017-07-06T06:28:37.909Z,15.98
2017-07-06T06:31:03.974Z,10.93
2017-07-06T06:33:30.038Z,11.43
2017-07-06T06:35:56.103Z,12.88
2017-07-06T06:38:22.182Z,14.90
2017-07-06T06:40:48.262Z,14.35
2017-07-06T06:43:14.338Z,16.12
2017-07-06T06:45:40.398Z,14.52
2017-07-06T06:48:06.454Z,14.50
2017-07-06T06:50:32.547Z,14.57
2017-07-06T06:52:58.623Z,13.35
2017-07-06T06:55:25.419Z,13.75
2017-07-06T06:57:51.501Z,11.75
2017-07-06T07:00:17.588Z,11.82
2017-07-06T07:02:43.652Z,12.68
2017-07-06T07:05:09.717Z,12.52
2017-07-06T07:07:35.777Z,13.30
2017-07-06T07:10:01.854Z,13.05
2017-07-06T07:12:27.942Z,12.85
2017-07-06T07:14:54.007Z,12.43
2017-07-06T07:17:20.072Z,12.43
2017-07-06T07:19:46.130Z,11.12
2017-07-06T07:22:12.196Z,11.20
2017-07-06T07:24:38.249Z,12.20
2017-07-06T07:27:04.498Z,12.43
2017-07-06T07:30:02.074Z,12.20
2017-07-06T07:32:28.152Z,13.05
2017-07-06T07:34:54.211Z,12.52
2017-07-06T07:37:20.299Z,12.40
2017-07-06T07:39:46.381Z,12.25
2017-07-06T07:42:12.434Z,13.75
2017-07-06T07:44:38.492Z,13.00
2017-07-06T07:47:04.755Z,13.80
2017-07-06T07:49:30.823Z,11.93
2017-07-06T07:51:56.887Z,12.57
2017-07-06T07:54:23.016Z,12.52
2017-07-06T07:56:49.132Z,12.98
2017-07-06T07:59:15.261Z,13.03
2017-07-06T08:01:42.294Z,15.30
2017-07-06T08:04:08.375Z,14.55
2017-07-06T08:06:34.444Z,13.65
2017-07-06T08:09:00.860Z,11.10
2017-07-06T08:11:26.955Z,12.48
2017-07-06T08:13:53.045Z,11.50
2017-07-06T08:16:19.139Z,11.00
2017-07-06T08:18:45.281Z,21.40
2017-07-06T08:21:11.338Z,13.07
2017-07-06T08:23:37.415Z,12.80
2017-07-06T08:26:03.494Z,14.70
2017-07-06T08:28:29.573Z,11.93
2017-07-06T08:30:56.025Z,11.40
2017-07-06T08:33:22.234Z,11.07
2017-07-06T08:35:48.307Z,11.87
2017-07-06T08:38:14.383Z,10.50
2017-07-06T08:40:40.475Z,11.30
2017-07-06T08:43:06.559Z,9.67
2017-07-06T08:45:32.644Z,12.00
2017-07-06T08:47:58.735Z,13.93
2017-07-06T08:50:24.834Z,10.93
2017-07-06T08:52:51.099Z,10.63
2017-07-06T08:55:17.171Z,10.70
2017-07-06T08:57:43.988Z,9.33
2017-07-06T09:00:10.109Z,16.53
2017-07-06T09:02:36.183Z,13.63
2017-07-06T09:05:02.290Z,9.00
2017-07-06T09:07:28.383Z,8.67
2017-07-06T09:09:54.594Z,8.93
2017-07-06T09:12:20.693Z,7.63
2017-07-06T09:14:46.859Z,9.50
2017-07-06T09:17:12.924Z,6.53
2017-07-06T09:19:39.729Z,9.07
2017-07-06T09:22:05.841Z,6.47
2017-07-06T09:24:31.889Z,6.60
2017-07-06T09:26:58.016Z,12.67
2017-07-06T09:29:24.108Z,13.20
2017-07-06T09:31:50.170Z,6.40
2017-07-06T09:34:17.391Z,8.00
2017-07-06T09:36:44.327Z,7.70
2017-07-06T09:39:10.361Z,15.73
2017-07-06T09:41:36.413Z,8.07
2017-07-06T09:44:02.456Z,24.63
2017-07-06T09:46:28.500Z,14.00
2017-07-06T09:48:54.577Z,7.43
2017-07-06T09:51:20.648Z,7.33
2017-07-06T09:53:46.763Z,6.90
2017-07-06T09:56:12.811Z,8.40
2017-07-06T09:58:39.008Z,7.00
2017-07-06T10:01:05.058Z,7.00
2017-07-06T10:03:31.106Z,5.80
2017-07-06T10:05:57.137Z,8.20
2017-07-06T10:08:23.190Z,10.00
2017-07-06T10:10:49.242Z,7.97
2017-07-06T10:13:15.275Z,6.67
2017-07-06T10:15:41.351Z,7.97
2017-07-06T10:18:07.408Z,5.77
2017-07-06T10:20:34.248Z,7.73
2017-07-06T10:23:00.294Z,7.60
2017-07-06T10:25:26.333Z,6.53
2017-07-06T10:27:52.387Z,6.10
2017-07-06T10:30:18.442Z,7.37
2017-07-06T10:32:44.519Z,5.90
2017-07-06T10:35:10.578Z,6.17
2017-07-06T10:37:36.667Z,7.30
2017-07-06T10:40:03.490Z,8.40
2017-07-06T10:42:29.595Z,7.93
2017-07-06T10:44:55.643Z,6.60
2017-07-06T10:47:21.756Z,8.60
2017-07-06T10:50:02.808Z,15.37
2017-07-06T10:52:28.882Z,7.50
2017-07-06T10:54:54.923Z,10.67
2017-07-06T10:57:20.975Z,7.10
2017-07-06T10:59:47.027Z,6.53
2017-07-06T11:02:13.104Z,7.40
2017-07-06T11:04:39.886Z,6.30
2017-07-06T11:07:05.933Z,7.70
2017-07-06T11:09:31.974Z,6.23
2017-07-06T11:11:58.198Z,7.63
2017-07-06T11:14:24.246Z,7.37
2017-07-06T11:16:50.315Z,6.53
2017-07-06T11:19:16.389Z,7.70
2017-07-06T11:21:42.456Z,6.00
2017-07-06T11:24:08.515Z,13.20
2017-07-06T11:26:34.573Z,7.07
2017-07-06T11:29:00.660Z,12.80
2017-07-06T11:31:41.716Z,5.60
2017-07-06T11:34:08.089Z,7.77
2017-07-06T11:36:34.147Z,7.67
2017-07-06T11:39:00.963Z,5.10
2017-07-06T11:41:27.027Z,6.13
2017-07-06T11:43:53.339Z,4.20
2017-07-06T11:46:19.402Z,8.17
2017-07-06T11:48:45.459Z,5.87
2017-07-06T11:51:11.515Z,7.87
2017-07-06T11:53:37.586Z,4.73
2017-07-06T11:56:35.485Z,4.70
2017-07-06T11:59:01.551Z,6.70
2017-07-06T12:01:43.319Z,4.20
2017-07-06T12:04:09.379Z,5.20
2017-07-06T12:06:51.145Z,7.13
2017-07-06T12:09:17.223Z,15.53
2017-07-06T12:11:43.347Z,29.53
2017-07-06T12:14:09.420Z,4.03
2017-07-06T12:16:35.749Z,16.77
2017-07-06T12:19:01.803Z,4.30
2017-07-06T12:21:27.859Z,6.40
2017-07-06T12:23:54.210Z,7.10
2017-07-06T12:26:20.271Z,4.43
2017-07-06T12:28:46.344Z,5.40
2017-07-06T13:06:47.895Z,4.73
2017-07-06T13:09:13.942Z,7.40
2017-07-06T13:11:39.992Z,4.20
2017-07-06T13:14:06.039Z,7.23
2017-07-06T13:16:32.102Z,6.40
2017-07-06T13:18:58.187Z,3.23
2017-07-06T13:21:24.340Z,4.00
2017-07-06T13:24:02.622Z,6.60
2017-07-06T13:26:28.710Z,7.57
2017-07-06T13:33:15.785Z,4.17
2017-07-06T13:36:12.148Z,5.47
2017-07-06T13:38:38.215Z,5.00
2017-07-06T13:41:04.273Z,5.40
2017-07-06T13:43:30.366Z,4.03
2017-07-06T13:45:56.426Z,4.70
2017-07-06T13:48:22.460Z,3.53
2017-07-06T13:50:49.416Z,4.17
2017-07-06T13:53:15.445Z,3.60
2017-07-06T13:55:41.720Z,4.23
2017-07-06T13:58:07.816Z,4.50
2017-07-06T14:00:33.884Z,6.53
2017-07-06T14:02:59.942Z,5.00
2017-07-06T14:05:32.022Z,4.07
2017-07-06T14:08:03.484Z,4.53
2017-07-06T14:10:29.791Z,4.60
2017-07-06T14:12:56.074Z,3.60
2017-07-06T14:15:22.174Z,3.47
2017-07-06T14:17:48.247Z,3.40
2017-07-06T14:20:14.311Z,3.77
2017-07-06T14:22:41.114Z,3.30
2017-07-06T14:25:07.169Z,6.13
2017-07-06T14:27:33.261Z,4.67
2017-07-06T14:29:59.347Z,6.43
2017-07-06T14:32:41.286Z,3.83
2017-07-06T14:35:07.520Z,2.83
2017-07-06T14:37:33.582Z,3.17
2017-07-06T14:39:59.664Z,4.17
2017-07-06T14:42:25.750Z,5.13
2017-07-06T14:44:52.570Z,3.53
2017-07-06T14:47:18.895Z,3.00
2017-07-06T14:49:44.990Z,3.43
2017-07-06T14:52:11.087Z,6.07
2017-07-06T14:54:37.157Z,2.80
2017-07-06T14:57:03.282Z,3.60
2017-07-06T14:59:29.327Z,7.43
2017-07-06T15:01:55.386Z,4.47
2017-07-06T15:04:21.468Z,4.97
2017-07-06T15:06:47.523Z,8.70
2017-07-06T15:09:13.582Z,3.37
2017-07-06T15:11:39.657Z,3.33
2017-07-06T15:14:05.745Z,5.40
2017-07-06T15:16:31.859Z,2.77
2017-07-06T15:18:58.125Z,5.30
2017-07-06T15:21:24.565Z,6.07
2017-07-06T15:23:50.619Z,3.73
2017-07-06T15:26:16.663Z,2.10
2017-07-06T15:28:43.475Z,2.47
2017-07-06T15:31:09.546Z,3.03
2017-07-06T15:33:35.590Z,2.80
2017-07-06T15:36:01.661Z,2.53
2017-07-06T15:38:27.712Z,2.67
2017-07-06T15:40:53.886Z,7.60
2017-07-06T15:43:19.946Z,3.23
2017-07-06T15:45:46.009Z,2.50
2017-07-06T15:48:12.085Z,8.03
2017-07-06T15:50:38.139Z,3.10
2017-07-06T15:53:04.196Z,3.23
2017-07-06T15:55:30.271Z,2.27
2017-07-06T15:57:56.335Z,1.53
2017-07-06T16:00:22.418Z,3.00
2017-07-06T16:02:49.488Z,4.43
2017-07-06T16:05:16.289Z,2.60
2017-07-06T16:07:42.360Z,1.60
2017-07-06T16:10:08.486Z,4.23
2017-07-06T16:12:35.287Z,1.80
2017-07-06T16:15:01.449Z,3.07
2017-07-06T16:17:42.475Z,1.97
2017-07-06T16:20:08.538Z,2.43
2017-07-06T16:22:34.604Z,2.13
2017-07-06T16:25:01.519Z,3.40
2017-07-06T16:27:27.567Z,2.10
2017-07-06T16:29:53.647Z,2.20
2017-07-06T16:32:19.711Z,2.37
2017-07-06T16:34:45.788Z,3.50
2017-07-06T16:37:11.861Z,2.00
2017-07-06T16:39:37.930Z,2.20
2017-07-06T16:42:03.995Z,2.60
2017-07-06T16:44:30.055Z,4.00
2017-07-06T16:46:56.254Z,3.03
2017-07-06T16:49:22.361Z,2.27
2017-07-06T16:51:48.459Z,2.43
2017-07-06T16:54:29.485Z,2.60
2017-07-06T16:56:55.618Z,2.87
2017-07-06T16:59:21.671Z,2.60
2017-07-06T17:01:47.746Z,3.00
2017-07-06T17:04:13.795Z,3.33
2017-07-06T17:06:39.888Z,2.80
2017-07-06T17:09:06.104Z,4.10
2017-07-06T17:11:32.174Z,2.70
2017-07-06T17:13:58.234Z,2.13
2017-07-06T17:16:24.319Z,2.80
2017-07-06T17:18:50.362Z,3.47
2017-07-06T17:21:16.397Z,2.90
2017-07-06T17:23:42.458Z,2.93
2017-07-06T17:26:08.506Z,2.67
2017-07-06T17:28:34.559Z,2.47
2017-07-06T17:31:00.634Z,3.77
2017-07-06T17:33:27.191Z,4.20
2017-07-06T17:35:53.237Z,3.27
2017-07-06T17:38:19.285Z,4.07
2017-07-06T17:40:45.329Z,3.13
2017-07-06T17:43:11.386Z,6.13
2017-07-06T17:45:37.439Z,2.53
2017-07-06T17:48:03.473Z,3.43
2017-07-06T17:50:29.524Z,3.47
2017-07-06T17:52:55.799Z,5.23
2017-07-06T17:55:21.839Z,2.63
2017-07-06T17:57:47.883Z,5.40
2017-07-06T18:00:13.924Z,4.37
2017-07-06T18:02:40.000Z,3.60
2017-07-06T18:05:21.013Z,3.87
2017-07-06T18:07:47.070Z,3.57
2017-07-06T18:10:13.115Z,3.93
2017-07-06T18:12:39.163Z,4.50
2017-07-06T18:15:05.367Z,3.40
2017-07-06T18:17:31.423Z,4.37
2017-07-06T18:19:57.527Z,3.10
2017-07-06T18:22:23.594Z,4.67
2017-07-06T18:24:49.672Z,3.17
2017-07-06T18:27:15.731Z,4.00
2017-07-06T18:29:41.794Z,3.70
2017-07-06T18:32:07.878Z,5.30
2017-07-06T18:34:33.948Z,4.83
2017-07-06T18:37:00.242Z,5.63
2017-07-06T18:39:26.293Z,3.90
2017-07-06T18:41:52.357Z,7.47
2017-07-06T18:44:18.427Z,3.60
2017-07-06T18:46:44.499Z,5.77
2017-07-06T18:49:10.565Z,4.90
2017-07-06T18:51:36.632Z,6.33
2017-07-06T18:54:02.689Z,8.70
2017-07-06T18:56:28.753Z,8.40
2017-07-06T18:58:55.067Z,5.77
2017-07-06T19:01:21.115Z,3.57
2017-07-06T19:03:47.251Z,4.03
2017-07-06T19:06:44.183Z,3.20
2017-07-06T19:09:10.234Z,4.97
2017-07-06T19:11:36.314Z,4.20
2017-07-06T19:14:02.374Z,4.23
2017-07-06T19:16:28.439Z,3.90
2017-07-06T19:18:54.710Z,3.57
2017-07-06T19:21:20.748Z,4.70
2017-07-06T19:23:46.777Z,4.83
2017-07-06T19:26:12.811Z,4.57
2017-07-06T19:28:38.859Z,4.50
2017-07-06T19:31:05.651Z,5.10
2017-07-06T19:33:31.708Z,5.97
2017-07-06T19:35:57.742Z,5.80
2017-07-06T19:38:23.802Z,5.53
2017-07-06T19:40:50.158Z,11.67
2017-07-06T19:43:31.199Z,9.50
2017-07-06T19:45:57.247Z,6.70
2017-07-06T19:48:23.290Z,12.03
2017-07-06T19:50:49.326Z,8.23
2017-07-06T19:53:15.376Z,3.53
2017-07-06T19:55:41.412Z,5.97
2017-07-06T19:58:07.451Z,7.03
2017-07-06T20:00:34.245Z,5.80
2017-07-06T20:03:00.363Z,6.93
2017-07-06T20:05:26.402Z,6.47
2017-07-06T20:07:52.439Z,4.20
2017-07-06T20:10:18.475Z,5.50
2017-07-06T20:12:44.519Z,4.90
2017-07-06T20:15:11.302Z,4.00
2017-07-06T20:17:37.358Z,4.80
2017-07-06T20:20:03.403Z,7.27
2017-07-06T20:22:29.457Z,4.70
2017-07-06T20:24:55.814Z,5.20
2017-07-06T20:27:21.860Z,7.27
2017-07-06T20:29:47.899Z,4.07
2017-07-06T20:32:13.967Z,5.03
2017-07-06T20:34:40.015Z,7.83
2017-07-06T20:37:06.048Z,4.67
2017-07-06T20:39:32.125Z,6.27
2017-07-06T20:41:58.909Z,4.87
2017-07-06T20:44:24.989Z,3.80
2017-07-06T20:46:51.285Z,5.10
2017-07-06T20:49:17.354Z,4.00
2017-07-06T20:51:44.137Z,3.57
2017-07-06T20:54:10.205Z,3.43
2017-07-06T20:56:36.242Z,5.20
2017-07-06T20:59:02.290Z,4.90
2017-07-06T21:01:28.366Z,6.63
2017-07-06T21:03:54.409Z,4.43
2017-07-06T21:06:20.517Z,3.83
2017-07-06T21:08:46.779Z,6.50
2017-07-06T21:11:12.892Z,4.57
2017-07-06T21:13:39.004Z,7.60
2017-07-06T21:16:05.128Z,5.27
2017-07-06T21:18:31.230Z,5.00
2017-07-06T21:20:57.280Z,4.77
2017-07-06T21:23:23.409Z,5.90
2017-07-06T21:25:49.587Z,8.30
2017-07-06T21:28:16.492Z,4.27
2017-07-06T21:30:42.777Z,6.13
2017-07-06T21:33:09.617Z,5.07
2017-07-06T21:35:35.681Z,8.07
2017-07-06T21:38:01.727Z,7.13
2017-07-06T21:40:27.769Z,4.43
2017-07-06T21:42:53.818Z,6.27
2017-07-06T21:45:19.879Z,5.67
2017-07-06T21:47:45.925Z,5.20
2017-07-06T21:50:11.983Z,4.37
2017-07-06T21:52:38.243Z,5.03
2017-07-06T21:55:04.298Z,4.83
2017-07-06T21:57:30.327Z,4.90
2017-07-06T21:59:56.389Z,4.47
2017-07-06T22:02:22.437Z,5.23
2017-07-06T22:04:48.479Z,6.07
2017-07-06T22:07:14.530Z,5.20
2017-07-06T22:09:40.578Z,13.50
2017-07-06T22:12:06.658Z,7.07
2017-07-06T22:14:34.015Z,6.20
2017-07-06T22:17:00.066Z,7.17
2017-07-06T22:19:26.122Z,5.90
2017-07-06T22:21:52.163Z,6.07
2017-07-06T22:24:18.198Z,5.97
2017-07-06T22:26:44.231Z,6.03
2017-07-06T22:29:10.272Z,7.73
2017-07-06T22:31:36.335Z,6.32
2017-07-06T22:34:02.391Z,8.00
2017-07-06T22:36:28.539Z,5.43
2017-07-06T22:38:54.596Z,6.87
2017-07-06T22:41:20.676Z,6.75
2017-07-06T22:43:46.717Z,6.95
2017-07-06T22:46:12.769Z,6.03
2017-07-06T22:48:38.821Z,5.40
2017-07-06T22:51:04.875Z,5.18
2017-07-06T22:53:30.929Z,5.33
2017-07-06T22:55:56.994Z,4.57
2017-07-06T22:58:23.073Z,8.65
2017-07-06T23:00:49.148Z,5.05
2017-07-06T23:03:15.203Z,7.65
2017-07-06T23:05:41.262Z,5.47
2017-07-06T23:08:07.329Z,5.03
2017-07-06T23:10:33.391Z,4.10
2017-07-06T23:12:59.470Z,5.53
2017-07-06T23:15:25.523Z,5.30
2017-07-06T23:17:51.595Z,4.50
2017-07-06T23:20:17.982Z,4.65
2017-07-06T23:22:44.050Z,3.97
2017-07-06T23:25:10.106Z,6.10
2017-07-06T23:27:36.180Z,4.20
2017-07-06T23:30:02.334Z,6.73
2017-07-06T23:32:28.402Z,3.83
2017-07-06T23:34:54.492Z,3.55
2017-07-06T23:37:20.547Z,4.22
2017-07-06T23:39:46.630Z,4.30
2017-07-06T23:42:12.791Z,5.35
2017-07-06T23:44:38.869Z,4.20
2017-07-06T23:47:04.937Z,4.40
2017-07-06T23:49:31.006Z,7.93
2017-07-06T23:51:57.807Z,5.53
2017-07-06T23:54:23.875Z,5.25
2017-07-06T23:56:49.935Z,5.45
2017-07-06T23:59:15.995Z,4.62
